EDT,Max TemperatureF,Mean TemperatureF,Min TemperatureF,Max Dew PointF,MeanDew PointF,Min DewpointF,Max Humidity, Mean Humidity, Min Humidity, Max Sea Level PressureIn, Mean Sea Level PressureIn, Min Sea Level PressureIn, Max VisibilityMiles, Mean VisibilityMiles, Min VisibilityMiles, Max Wind SpeedMPH, Mean Wind SpeedMPH, Max Gust SpeedMPH,PrecipitationIn, CloudCover, Events, WindDirDegrees
2013-5-1,78,59,40,42,37,30,79,49,19,30.46,30.42,30.36,10,10,10,12,4,16,0.00,1,,91
2013-5-2,69,56,43,40,33,22,71,45,18,30.59,30.52,30.47,10,10,10,16,8,23,T,4,,87
2013-5-3,70,53,36,36,31,24,82,52,22,30.63,30.52,30.40,10,10,10,13,5,16,0.00,0,,74
2013-5-4,72,55,37,34,31,25,79,51,22,30.43,30.34,30.23,10,10,10,9,3,13,0.00,0,,172
2013-5-5,80,61,41,39,35,33,76,48,19,30.24,30.17,30.09,10,10,10,14,7,20,0.00,0,,189
2013-5-6,80,64,47,43,39,37,71,47,23,30.16,30.09,30.00,10,10,10,20,9,26,0.00,0,,187
2013-5-7,85,66,47,42,36,28,76,45,14,30.12,30.02,29.94,10,10,10,20,8,28,0.00,2,,218
2013-5-8,83,64,45,50,43,37,76,50,23,30.23,30.15,30.09,10,10,10,17,8,25,0.00,0,,174
2013-5-9,67,62,56,58,55,52,93,78,63,30.11,29.99,29.88,10,10,4,18,9,25,0.01,7,Rain,179
2013-5-10,64,57,49,57,53,42,93,77,60,30.01,29.92,29.86,10,8,1,16,7,21,0.07,7,Rain,298
2013-5-11,56,52,48,55,50,42,100,90,80,29.99,29.80,29.62,10,8,2,18,10,23,0.47,8,Rain,139
2013-5-12,59,52,45,56,50,42,100,84,67,29.67,29.59,29.50,10,8,1,13,3,22,0.54,8,Rain,246
2013-5-13,52,45,37,41,31,26,89,64,39,29.97,29.77,29.61,10,10,10,23,10,33,T,5,,226
2013-5-14,54,42,30,32,30,28,92,65,38,30.01,29.97,29.94,10,10,10,15,5,20,T,4,,302
2013-5-15,63,49,35,36,29,24,75,49,23,29.93,29.81,29.68,10,10,10,17,9,25,0.01,2,Rain,242
2013-5-16,58,50,41,50,45,37,100,86,72,29.77,29.59,29.53,10,8,2,17,8,24,0.21,8,Rain,206
2013-5-17,53,46,39,40,37,34,86,68,50,30.22,29.98,29.75,10,10,10,22,11,28,T,8,Rain,346
2013-5-18,58,46,33,33,31,30,89,64,38,30.38,30.32,30.23,10,10,10,13,6,17,0.00,1,,23
2013-5-19,62,47,32,41,32,28,92,61,29,30.42,30.34,30.21,10,10,10,14,4,20,0.00,2,,113
2013-5-20,52,49,45,52,48,40,100,83,66,30.19,30.02,29.95,10,4,0,13,8,18,0.51,8,Fog-Rain,170
2013-5-21,62,56,49,52,49,44,100,78,55,30.04,30.01,29.98,10,7,0,12,2,14,T,6,Fog-Rain,341
2013-5-22,54,52,49,50,49,48,100,92,83,30.04,29.99,29.93,10,8,2,17,8,24,0.06,7,Rain,148
2013-5-23,65,57,48,61,53,46,100,94,87,29.91,29.80,29.74,10,8,3,20,9,26,0.25,8,Rain,174
2013-5-24,61,54,46,61,53,44,100,93,86,29.96,29.78,29.69,10,6,1,20,9,30,0.75,8,Rain,335
2013-5-25,46,44,41,43,41,39,96,90,83,30.04,29.97,29.84,10,5,2,18,12,29,1.27,8,Rain,27
2013-5-26,54,48,42,48,44,39,100,92,83,29.85,29.77,29.70,10,7,1,17,7,23,0.62,8,Rain,9
2013-5-27,52,45,38,39,36,35,86,70,54,30.13,29.96,29.79,10,10,10,21,11,31,T,7,Rain,313
2013-5-28,68,51,33,41,36,32,100,65,29,30.25,30.20,30.14,10,10,10,13,3,17,0.00,0,,38
2013-5-29,71,57,43,55,45,38,100,66,31,30.23,30.11,29.96,10,8,2,21,10,29,0.33,4,Rain,155
2013-5-30,73,63,53,61,56,52,100,79,57,29.97,29.94,29.91,10,9,2,9,5,16,0.06,7,Rain,216
2013-5-31,87,72,57,66,62,56,100,70,40,29.97,29.87,29.76,10,9,1,30,8,44,0.35,4,Rain-Thunderstorm,252